Time;durP1;ratioP1;P1;durP2;ratioP2;P2;SDS_P1;SDS_P2;PMS_P1;PMS_P2;Temp;Humidity;BMP_temperature;BMP_pressure;BME280_temperature;BME280_humidity;BME280_pressure;Samples;Min_cycle;Max_cycle;Signal;HPM_P1;HPM_P2
2022/11/14 00:00:45;;;;;;;3.30;3.10;;;9.60;73.80;9.50;96453.00;;;;5028224;28;20713;-83
2022/11/14 00:03:13;;;;;;;3.80;3.50;;;9.60;73.80;9.50;96454.00;;;;5033023;28;20236;-83
2022/11/14 00:05:44;;;;;;;6.10;3.23;;;9.60;73.80;9.50;96458.00;;;;5031672;28;20229;-83
2022/11/14 00:08:17;;;;;;;3.73;3.43;;;9.60;73.80;9.60;96447.00;;;;5022687;28;20217;-83
2022/11/14 00:10:46;;;;;;;3.70;3.40;;;9.60;73.80;9.50;96445.00;;;;5034056;28;20252;-83
2022/11/14 00:13:14;;;;;;;4.03;3.73;;;9.60;73.80;9.50;96437.00;;;;5022228;28;20280;-82
2022/11/14 00:15:42;;;;;;;4.00;3.27;;;9.60;74.50;9.50;96439.00;;;;5031121;28;20588;-83
2022/11/14 00:18:09;;;;;;;3.63;3.33;;;9.60;73.90;9.50;96447.00;;;;5023617;28;20790;-83
2022/11/14 00:20:37;;;;;;;3.30;3.10;;;9.60;73.90;9.50;96455.00;;;;5022280;28;20210;-83
2022/11/14 00:23:05;;;;;;;3.73;3.40;;;9.60;73.90;9.60;96464.00;;;;5029565;28;20557;-84
2022/11/14 00:25:33;;;;;;;3.80;3.50;;;9.60;74.00;9.60;96458.00;;;;5034127;28;20221;-83
2022/11/14 00:28:00;;;;;;;4.30;3.93;;;9.70;74.20;9.60;96454.00;;;;5034326;28;20197;-84
2022/11/14 00:30:28;;;;;;;3.77;3.53;;;9.70;74.20;9.60;96454.00;;;;5027531;28;20237;-84
2022/11/14 00:32:56;;;;;;;3.93;3.60;;;9.70;74.20;9.60;96446.00;;;;5029811;28;20213;-83
2022/11/14 00:35:23;;;;;;;7.33;3.83;;;9.70;74.20;9.60;96446.00;;;;5032880;28;20251;-82
2022/11/14 00:37:50;;;;;;;4.10;3.80;;;9.70;74.40;9.70;96439.00;;;;5023441;28;20261;-83
2022/11/14 00:40:19;;;;;;;4.93;3.57;;;9.70;74.40;9.70;96432.00;;;;5034888;28;20224;-83
2022/11/14 00:42:46;;;;;;;6.30;3.70;;;9.70;74.40;9.70;96439.00;;;;5025505;28;20202;-83
2022/11/14 00:45:13;;;;;;;3.73;3.43;;;9.70;74.40;9.70;96447.00;;;;5031212;28;20304;-81
2022/11/14 00:47:41;;;;;;;6.73;3.93;;;9.70;74.40;9.70;96443.00;;;;5028874;28;20284;-83
2022/11/14 00:50:10;;;;;;;4.83;4.00;;;9.80;74.60;9.70;96454.00;;;;5030153;28;20224;-81
2022/11/14 00:52:37;;;;;;;4.10;3.70;;;9.80;74.50;9.70;96457.00;;;;5034444;28;20197;-83
2022/11/14 00:55:06;;;;;;;4.23;3.93;;;9.80;74.50;9.70;96460.00;;;;5034425;28;20229;-84
2022/11/14 00:57:35;;;;;;;4.13;3.60;;;9.80;74.60;9.70;96461.00;;;;5034504;28;20255;-84
2022/11/14 01:00:02;;;;;;;3.53;3.33;;;9.80;74.70;9.70;96453.00;;;;5028643;28;20239;-84
2022/11/14 01:02:29;;;;;;;4.00;3.60;;;9.80;74.70;9.70;96444.00;;;;5030224;28;20193;-84
2022/11/14 01:04:56;;;;;;;6.13;3.90;;;9.80;74.70;9.70;96443.00;;;;5029973;28;20225;-84
2022/11/14 01:07:24;;;;;;;4.17;3.87;;;9.80;74.70;9.70;96439.00;;;;5037516;28;20689;-84
2022/11/14 01:09:51;;;;;;;5.37;3.97;;;9.80;74.80;9.80;96444.00;;;;5029708;28;20208;-84
2022/11/14 01:12:18;;;;;;;4.80;4.40;;;9.80;74.80;9.80;96449.00;;;;5037993;28;20221;-84
2022/11/14 01:14:47;;;;;;;4.00;3.70;;;9.80;74.90;9.80;96446.00;;;;5037143;28;20289;-84
2022/11/14 01:17:14;;;;;;;3.63;3.43;;;9.80;75.10;9.80;96437.00;;;;5037170;28;20221;-85
2022/11/14 01:19:43;;;;;;;4.27;3.97;;;9.80;75.00;9.90;96439.00;;;;5028219;28;20271;-84
2022/11/14 01:22:10;;;;;;;6.27;4.27;;;9.90;75.10;9.90;96444.00;;;;5041136;28;20238;-84
2022/11/14 01:24:37;;;;;;;5.67;4.13;;;9.90;75.10;9.90;96447.00;;;;5040075;28;20213;-84
2022/11/14 01:27:05;;;;;;;8.47;4.17;;;9.90;75.20;9.90;96450.00;;;;5025921;28;20225;-84
2022/11/14 01:29:32;;;;;;;9.13;4.60;;;9.90;75.20;9.90;96446.00;;;;5024572;28;20561;-84
2022/11/14 01:32:00;;;;;;;8.30;4.50;;;10.00;75.20;10.00;96433.00;;;;5022790;28;20289;-84
2022/11/14 01:34:28;;;;;;;8.60;4.70;;;10.00;75.20;10.00;96428.00;;;;5028909;28;20599;-84
2022/11/14 01:36:55;;;;;;;5.80;4.60;;;10.00;75.20;10.00;96418.00;;;;5029558;28;20209;-84
2022/11/14 01:39:23;;;;;;;10.60;5.10;;;10.00;75.20;10.00;96422.00;;;;5031522;28;20255;-84
2022/11/14 01:41:50;;;;;;;8.00;4.80;;;10.00;75.30;10.00;96423.00;;;;5033271;28;20570;-85
2022/11/14 01:44:41;;;;;;;12.33;4.60;;;10.00;75.30;10.00;96416.00;;;;5041979;28;20240;-84
2022/11/14 01:47:11;;;;;;;4.10;3.80;;;10.10;75.40;10.00;96396.00;;;;5035569;28;20245;-85
2022/11/14 01:49:43;;;;;;;15.90;4.60;;;10.10;75.30;10.00;96396.00;;;;5036116;28;20635;-84
2022/11/14 01:52:15;;;;;;;11.23;5.23;;;10.10;75.40;10.10;96405.00;;;;5039734;28;20197;-84
2022/11/14 01:54:49;;;;;;;9.40;4.80;;;10.10;75.40;10.00;96412.00;;;;5032417;28;20218;-84
2022/11/14 01:57:22;;;;;;;7.20;4.40;;;10.10;76.10;10.00;96421.00;;;;5040675;28;20217;-84
2022/11/14 01:59:54;;;;;;;4.63;4.23;;;10.10;75.30;10.00;96425.00;;;;5037377;28;20236;-84
2022/11/14 02:02:25;;;;;;;6.17;4.40;;;10.10;75.50;10.00;96412.00;;;;5033879;28;20246;-84
2022/11/14 02:05:00;;;;;;;4.60;4.23;;;10.10;75.50;10.10;96412.00;;;;5040792;28;20268;-84
2022/11/14 02:07:32;;;;;;;7.10;4.90;;;10.10;75.60;10.10;96404.00;;;;5033839;28;20245;-84
2022/11/14 02:10:05;;;;;;;8.17;4.50;;;10.10;76.30;10.10;96417.00;;;;5029155;28;20229;-84
2022/11/14 02:12:33;;;;;;;11.67;4.67;;;10.20;75.60;10.10;96400.00;;;;5035917;28;20236;-84
2022/11/14 02:15:02;;;;;;;6.20;4.80;;;10.20;75.60;10.10;96402.00;;;;5033959;28;20579;-84
2022/11/14 02:17:32;;;;;;;4.57;4.17;;;10.20;75.60;10.10;96418.00;;;;5028106;28;20221;-85
2022/11/14 02:20:16;;;;;;;7.63;4.53;;;10.20;75.60;10.10;96410.00;;;;5026035;28;20201;-85
2022/11/14 02:22:43;;;;;;;13.77;4.53;;;10.20;75.70;10.10;96404.00;;;;5036787;28;20214;-83
2022/11/14 02:25:16;;;;;;;5.33;4.43;;;10.20;75.70;10.20;96419.00;;;;5040556;28;20248;-84
2022/11/14 02:27:44;;;;;;;21.10;5.00;;;10.20;75.60;10.20;96430.00;;;;5042264;28;20232;-84
2022/11/14 02:30:15;;;;;;;4.77;4.37;;;10.20;75.50;10.10;96415.00;;;;5040581;28;21097;-83
2022/11/14 02:32:43;;;;;;;13.23;4.97;;;10.20;75.50;10.10;96424.00;;;;5039043;28;20186;-83
2022/11/14 02:35:11;;;;;;;6.13;4.07;;;10.20;75.50;10.10;96422.00;;;;5040525;28;20248;-83
2022/11/14 02:37:39;;;;;;;4.47;4.07;;;10.20;75.50;10.20;96417.00;;;;5032351;28;20205;-84
2022/11/14 02:40:09;;;;;;;6.43;4.67;;;10.20;75.50;10.20;96415.00;;;;5035153;28;20304;-84
2022/11/14 02:42:36;;;;;;;5.10;4.67;;;10.20;75.50;10.10;96403.00;;;;5035823;28;20205;-85
2022/11/14 02:45:04;;;;;;;11.63;4.67;;;10.20;75.50;10.20;96395.00;;;;5042115;28;20289;-84
2022/11/14 02:47:31;;;;;;;5.53;4.50;;;10.30;75.60;10.20;96400.00;;;;5030677;28;20334;-84
2022/11/14 02:49:58;;;;;;;4.87;4.13;;;10.30;75.60;10.20;96394.00;;;;5042145;28;20700;-84
2022/11/14 02:52:27;;;;;;;8.40;4.30;;;10.30;75.60;10.20;96399.00;;;;5035050;28;20641;-83
2022/11/14 02:54:54;;;;;;;16.07;5.00;;;10.20;75.50;10.20;96399.00;;;;5039230;28;20228;-84
2022/11/14 02:57:21;;;;;;;5.03;4.50;;;10.30;75.60;10.20;96389.00;;;;5032550;28;20293;-83
2022/11/14 02:59:48;;;;;;;7.30;4.60;;;10.20;75.60;10.20;96392.00;;;;5040887;28;20682;-84
2022/11/14 03:02:15;;;;;;;4.43;4.03;;;10.20;75.70;10.20;96392.00;;;;5038554;28;20638;-84
2022/11/14 03:04:43;;;;;;;4.63;4.23;;;10.20;75.80;10.20;96388.00;;;;5024314;28;20249;-84
2022/11/14 03:07:10;;;;;;;13.63;4.63;;;10.20;75.80;10.20;96390.00;;;;5039385;28;20237;-83
2022/11/14 03:09:39;;;;;;;7.20;4.50;;;10.30;75.80;10.20;96393.00;;;;5039898;28;20193;-83
2022/11/14 03:12:06;;;;;;;4.30;4.00;;;10.30;75.70;10.20;96389.00;;;;5039248;28;20247;-84
2022/11/14 03:14:34;;;;;;;5.73;4.10;;;10.30;75.80;10.20;96383.00;;;;5036538;28;20221;-83
2022/11/14 03:17:01;;;;;;;4.17;3.23;;;10.20;75.60;10.20;96392.00;;;;5039529;28;20209;-85
2022/11/14 03:19:29;;;;;;;3.67;3.37;;;10.30;75.60;10.20;96389.00;;;;5033897;28;20228;-83
2022/11/14 03:21:56;;;;;;;3.93;3.63;;;10.30;75.50;10.20;96377.00;;;;5029300;28;20225;-84
2022/11/14 03:24:23;;;;;;;3.20;3.00;;;10.30;75.50;10.20;96379.00;;;;5039346;28;20656;-85
2022/11/14 03:26:52;;;;;;;6.00;3.80;;;10.30;75.60;10.20;96380.00;;;;5038639;28;20240;-84
2022/11/14 03:29:19;;;;;;;5.57;3.80;;;10.30;75.50;10.20;96381.00;;;;5039700;28;20596;-84
2022/11/14 03:31:46;;;;;;;4.30;4.00;;;10.20;75.50;10.20;96378.00;;;;5039620;28;20223;-84
2022/11/14 03:34:14;;;;;;;4.70;3.73;;;10.30;75.50;10.20;96385.00;;;;5038554;28;20228;-84
2022/11/14 03:36:41;;;;;;;6.73;3.30;;;10.20;75.40;10.20;96382.00;;;;5034786;28;20205;-84
2022/11/14 03:39:08;;;;;;;7.97;3.47;;;10.30;75.40;10.20;96387.00;;;;5039908;28;20232;-83
2022/11/14 03:41:35;;;;;;;5.47;3.67;;;10.20;75.40;10.20;96392.00;;;;5036211;28;20276;-83
2022/11/14 03:44:04;;;;;;;4.47;4.07;;;10.20;75.30;10.10;96386.00;;;;5033825;28;20224;-83
2022/11/14 03:46:31;;;;;;;20.50;4.27;;;10.20;75.30;10.10;96388.00;;;;5035337;28;20208;-84
2022/11/14 03:48:59;;;;;;;8.90;3.73;;;10.20;75.30;10.10;96396.00;;;;5039015;28;20216;-84
2022/11/14 03:51:26;;;;;;;4.37;4.00;;;10.20;75.30;10.10;96396.00;;;;5033785;28;20228;-84
2022/11/14 03:53:53;;;;;;;8.70;3.77;;;10.20;75.20;10.10;96387.00;;;;5035729;28;20213;-84
2022/11/14 03:56:20;;;;;;;5.57;4.20;;;10.20;75.10;10.00;96399.00;;;;5039597;28;20280;-86
2022/11/14 03:58:47;;;;;;;10.17;4.23;;;10.20;75.00;10.00;96409.00;;;;5040036;28;20669;-84
2022/11/14 04:01:16;;;;;;;8.90;4.30;;;10.20;75.00;9.90;96418.00;;;;5037410;28;20654;-85
2022/11/14 04:03:43;;;;;;;8.63;3.87;;;10.10;75.00;9.90;96412.00;;;;5038199;28;20612;-85
2022/11/14 04:06:10;;;;;;;7.03;4.37;;;10.10;75.20;9.90;96407.00;;;;5040190;28;20593;-85
2022/11/14 04:08:41;;;;;;;9.60;4.40;;;10.10;75.20;9.90;96406.00;;;;5022173;28;20249;-83
2022/11/14 04:11:08;;;;;;;7.07;4.33;;;10.10;75.40;9.90;96409.00;;;;5037689;28;20217;-84
2022/11/14 04:13:36;;;;;;;4.53;3.63;;;10.00;75.40;9.80;96405.00;;;;5034243;28;20194;-84
2022/11/14 04:16:03;;;;;;;5.10;3.73;;;10.00;75.40;9.80;96405.00;;;;5022465;28;20256;-84
2022/11/14 04:18:32;;;;;;;9.33;3.90;;;10.00;75.40;9.80;96395.00;;;;5036608;28;20205;-84
2022/11/14 04:20:59;;;;;;;3.67;3.37;;;10.00;75.50;9.80;96397.00;;;;5038262;28;20197;-84
2022/11/14 04:23:26;;;;;;;4.23;3.83;;;10.00;75.60;9.80;96399.00;;;;5027850;28;20588;-84
2022/11/14 04:25:53;;;;;;;13.13;4.23;;;10.00;75.80;9.80;96392.00;;;;5031616;28;20245;-84
2022/11/14 04:28:21;;;;;;;4.80;3.27;;;9.90;75.70;9.80;96374.00;;;;5023206;28;20251;-84
2022/11/14 04:30:48;;;;;;;3.83;3.47;;;9.90;75.80;9.80;96384.00;;;;5039181;28;20257;-84
2022/11/14 04:33:15;;;;;;;3.83;3.53;;;9.90;75.70;9.80;96386.00;;;;5038193;28;20773;-83
2022/11/14 04:35:44;;;;;;;5.30;3.30;;;9.90;75.80;9.80;96382.00;;;;5025549;28;20237;-84
2022/11/14 04:38:11;;;;;;;4.13;3.83;;;9.90;75.70;9.80;96371.00;;;;5020825;28;20198;-84
2022/11/14 04:40:38;;;;;;;3.53;3.27;;;9.90;75.70;9.80;96365.00;;;;5036235;28;20221;-84
2022/11/14 04:43:05;;;;;;;3.53;3.33;;;9.90;75.70;9.80;96370.00;;;;5029981;28;20237;-86
2022/11/14 04:45:33;;;;;;;4.07;3.77;;;9.90;75.70;9.80;96365.00;;;;5036708;28;20245;-84
2022/11/14 04:48:00;;;;;;;6.27;3.90;;;9.90;75.80;9.80;96360.00;;;;5031716;28;20764;-85
2022/11/14 04:50:27;;;;;;;4.13;3.73;;;9.90;76.00;9.80;96361.00;;;;5037564;28;20216;-83
2022/11/14 04:52:55;;;;;;;3.80;3.50;;;9.90;76.00;9.90;96373.00;;;;5039515;28;20205;-85
2022/11/14 04:55:23;;;;;;;4.07;3.77;;;9.90;76.10;9.90;96385.00;;;;5037946;28;20221;-84
2022/11/14 04:57:54;;;;;;;8.00;4.07;;;9.90;76.10;9.90;96378.00;;;;5024558;28;20243;-84
2022/11/14 05:00:22;;;;;;;6.63;4.00;;;9.90;76.20;9.90;96383.00;;;;5030426;28;20209;-85
2022/11/14 05:02:49;;;;;;;8.50;4.40;;;9.90;76.10;9.90;96383.00;;;;5039094;28;20201;-84
2022/11/14 05:05:17;;;;;;;10.10;4.27;;;9.90;76.10;9.90;96385.00;;;;5036428;28;20221;-84
2022/11/14 05:07:44;;;;;;;4.10;3.70;;;9.90;76.00;9.90;96389.00;;;;5030257;28;20261;-84
2022/11/14 05:10:13;;;;;;;3.50;3.30;;;9.90;76.00;9.90;96380.00;;;;5027192;28;20220;-84
2022/11/14 05:12:40;;;;;;;9.03;4.03;;;10.00;76.00;9.90;96376.00;;;;5040396;28;20237;-84
2022/11/14 05:15:09;;;;;;;5.10;3.57;;;10.00;75.90;9.90;96371.00;;;;5032778;28;20714;-84
2022/11/14 05:17:36;;;;;;;3.83;3.60;;;10.00;76.00;9.90;96358.00;;;;5040536;28;20202;-84
2022/11/14 05:20:04;;;;;;;9.27;4.10;;;9.90;75.90;9.90;96356.00;;;;5031646;28;20224;-84
2022/11/14 05:22:32;;;;;;;12.97;3.90;;;9.90;75.80;9.90;96362.00;;;;5042417;28;20200;-85
2022/11/14 05:24:59;;;;;;;6.80;3.90;;;10.00;75.80;9.90;96364.00;;;;5030181;28;20256;-84
2022/11/14 05:27:28;;;;;;;3.87;3.50;;;9.90;75.80;9.80;96368.00;;;;5021827;28;20313;-84
2022/11/14 05:29:55;;;;;;;8.43;4.60;;;9.90;75.80;9.90;96366.00;;;;5040184;28;20482;-84
2022/11/14 05:32:23;;;;;;;3.80;3.60;;;9.80;76.60;9.80;96376.00;;;;5041740;28;20266;-83
2022/11/14 05:34:50;;;;;;;3.90;3.47;;;9.90;76.60;9.90;96369.00;;;;5040129;28;20213;-83
2022/11/14 05:37:17;;;;;;;9.43;3.20;;;9.90;76.40;9.90;96370.00;;;;5037474;28;20232;-84
2022/11/14 05:39:44;;;;;;;8.50;2.97;;;9.90;76.10;9.80;96380.00;;;;5037125;28;20830;-85
2022/11/14 05:42:11;;;;;;;14.30;3.67;;;9.90;75.90;9.80;96382.00;;;;5040476;28;20204;-86
2022/11/14 05:44:40;;;;;;;7.40;3.03;;;9.90;75.70;9.80;96385.00;;;;5039888;28;20217;-84
2022/11/14 05:47:07;;;;;;;12.40;2.90;;;9.90;75.70;9.80;96386.00;;;;5058240;28;20259;-84
2022/11/14 05:49:35;;;;;;;5.97;3.00;;;9.90;75.60;9.70;96393.00;;;;5042825;28;20194;-84
2022/11/14 05:52:02;;;;;;;9.70;3.60;;;9.90;75.50;9.70;96397.00;;;;5027770;28;20228;-85
2022/11/14 05:54:29;;;;;;;11.27;3.70;;;9.80;75.40;9.70;96405.00;;;;5034974;28;20241;-85
2022/11/14 05:56:56;;;;;;;8.37;3.93;;;9.80;75.40;9.60;96405.00;;;;5037056;28;20248;-85
2022/11/14 05:59:23;;;;;;;10.43;4.80;;;9.80;75.30;9.50;96406.00;;;;5038354;28;20626;-84
2022/11/14 06:01:52;;;;;;;9.33;3.60;;;9.70;75.20;9.50;96411.00;;;;5037841;28;20205;-84
2022/11/14 06:04:19;;;;;;;10.80;3.90;;;9.70;75.20;9.40;96400.00;;;;5028010;28;20636;-83
2022/11/14 06:06:46;;;;;;;8.23;3.50;;;9.70;75.10;9.40;96403.00;;;;5038637;28;20194;-85
2022/11/14 06:09:14;;;;;;;5.13;3.00;;;9.60;75.00;9.30;96415.00;;;;5033021;28;20228;-84
2022/11/14 06:11:41;;;;;;;8.03;3.17;;;9.60;75.10;9.30;96424.00;;;;5034857;28;20193;-84
2022/11/14 06:14:08;;;;;;;3.30;2.60;;;9.50;74.90;9.20;96432.00;;;;5037175;28;20631;-84
2022/11/14 06:16:35;;;;;;;2.77;2.50;;;9.50;74.90;9.20;96422.00;;;;5036629;28;20229;-85
2022/11/14 06:19:04;;;;;;;5.00;2.77;;;9.50;74.80;9.20;96425.00;;;;5035642;28;20224;-83
2022/11/14 06:21:32;;;;;;;3.57;2.53;;;9.40;74.80;9.10;96428.00;;;;5033044;28;20283;-84
2022/11/14 06:23:59;;;;;;;11.37;2.73;;;9.40;74.70;9.10;96438.00;;;;5037101;28;20236;-85
2022/11/14 06:26:30;;;;;;;5.17;2.20;;;9.40;74.80;9.10;96441.00;;;;5034255;28;20646;-83
2022/11/14 06:28:59;;;;;;;2.97;2.47;;;9.30;74.70;9.10;96444.00;;;;5033001;28;20304;-82
2022/11/14 06:31:27;;;;;;;2.70;2.50;;;9.30;74.70;9.10;96453.00;;;;5032620;28;20198;-83
2022/11/14 06:33:55;;;;;;;4.20;2.50;;;9.20;74.90;9.10;96462.00;;;;5034806;28;20685;-83
2022/11/14 06:36:24;;;;;;;6.77;2.90;;;9.20;74.70;9.10;96469.00;;;;5033867;28;20659;-84
2022/11/14 06:38:51;;;;;;;3.60;2.70;;;9.20;74.70;9.00;96464.00;;;;5029723;28;20260;-83
2022/11/14 06:41:20;;;;;;;3.03;2.63;;;9.20;74.70;9.00;96475.00;;;;5029632;28;20245;-85
2022/11/14 06:43:51;;;;;;;4.30;2.30;;;9.10;74.90;9.10;96467.00;;;;5034068;28;20224;-84
2022/11/14 06:46:21;;;;;;;5.97;2.47;;;9.10;74.90;9.10;96453.00;;;;5035744;28;20252;-82
2022/11/14 06:48:51;;;;;;;11.57;2.70;;;9.10;74.90;9.10;96459.00;;;;5036372;28;20646;-84
2022/11/14 06:51:19;;;;;;;7.43;3.10;;;9.10;74.90;9.10;96458.00;;;;5032642;28;20257;-83
2022/11/14 06:53:48;;;;;;;9.33;2.83;;;9.10;75.00;9.10;96457.00;;;;5031553;28;20773;-82
2022/11/14 06:56:19;;;;;;;3.03;2.50;;;9.10;75.00;9.10;96451.00;;;;5034305;28;20625;-82
2022/11/14 06:58:48;;;;;;;5.03;2.50;;;9.00;74.90;9.10;96446.00;;;;5036325;28;20285;-82
2022/11/14 07:01:19;;;;;;;6.60;2.33;;;9.00;74.90;9.10;96446.00;;;;5033446;28;20293;-83
2022/11/14 07:03:47;;;;;;;2.10;2.00;;;9.00;75.00;9.00;96441.00;;;;5033719;28;20214;-82
2022/11/14 07:06:18;;;;;;;3.27;2.70;;;9.00;74.90;9.00;96434.00;;;;5003515;28;20198;-84
2022/11/14 07:08:47;;;;;;;3.07;2.10;;;9.00;75.00;9.00;96430.00;;;;5032392;28;20229;-83
2022/11/14 07:11:21;;;;;;;1.93;1.83;;;9.00;75.00;9.00;96442.00;;;;5024332;28;20619;-83
2022/11/14 07:13:48;;;;;;;5.80;2.10;;;9.00;75.10;9.00;96436.00;;;;5028161;28;20571;-83
2022/11/14 07:16:16;;;;;;;5.50;2.23;;;9.00;75.00;9.10;96428.00;;;;5025659;28;20300;-83
2022/11/14 07:18:43;;;;;;;2.27;2.17;;;9.00;75.00;9.10;96421.00;;;;5028203;28;20232;-83
2022/11/14 07:21:12;;;;;;;2.50;2.30;;;9.00;75.00;9.10;96407.00;;;;5032522;28;20685;-84
2022/11/14 07:23:41;;;;;;;2.67;2.57;;;9.00;75.10;9.10;96403.00;;;;5032254;28;20201;-84
2022/11/14 07:26:11;;;;;;;4.87;2.70;;;9.00;75.20;9.10;96405.00;;;;5031553;28;20267;-84
2022/11/14 07:28:42;;;;;;;7.27;2.87;;;9.10;75.10;9.10;96421.00;;;;5033934;28;20244;-83
2022/11/14 07:31:11;;;;;;;2.40;2.20;;;9.10;75.00;9.10;96415.00;;;;5031938;28;20281;-84
2022/11/14 07:33:40;;;;;;;5.30;2.40;;;9.10;74.90;9.10;96415.00;;;;5030870;28;20200;-84
2022/11/14 07:36:09;;;;;;;2.27;2.17;;;9.10;75.00;9.10;96407.00;;;;5028333;28;20244;-84
2022/11/14 07:38:38;;;;;;;2.53;2.33;;;9.10;75.10;9.10;96418.00;;;;5033042;28;20292;-84
2022/11/14 07:41:09;;;;;;;6.30;2.57;;;9.10;75.00;9.20;96419.00;;;;5031247;28;20213;-83
2022/11/14 07:43:37;;;;;;;2.70;2.50;;;9.10;75.10;9.20;96431.00;;;;5015013;28;20233;-84
2022/11/14 07:46:08;;;;;;;4.97;2.40;;;9.10;75.00;9.20;96436.00;;;;5026723;28;20299;-83
2022/11/14 07:48:35;;;;;;;2.80;2.30;;;9.10;75.00;9.20;96436.00;;;;5029172;28;20682;-84
2022/11/14 07:51:04;;;;;;;8.60;2.43;;;9.10;75.00;9.20;96439.00;;;;5020079;28;20206;-84
2022/11/14 07:53:33;;;;;;;3.37;2.60;;;9.10;75.00;9.20;96444.00;;;;5037955;28;20303;-83
2022/11/14 07:56:05;;;;;;;3.63;2.63;;;9.10;74.90;9.20;96435.00;;;;5019713;28;20296;-83
2022/11/14 07:58:35;;;;;;;2.83;2.63;;;9.10;75.00;9.20;96434.00;;;;5032047;28;20239;-84
2022/11/14 08:01:05;;;;;;;4.60;2.10;;;9.10;74.90;9.20;96431.00;;;;5030309;28;20197;-83
2022/11/14 08:03:34;;;;;;;5.70;2.67;;;9.10;74.90;9.20;96430.00;;;;5020301;28;20285;-83
2022/11/14 08:06:02;;;;;;;3.00;2.60;;;9.10;75.00;9.20;96425.00;;;;5043149;28;20311;-84
2022/11/14 08:08:29;;;;;;;3.77;3.47;;;9.10;75.00;9.20;96424.00;;;;5035628;28;20224;-83
2022/11/14 08:10:57;;;;;;;3.57;3.27;;;9.20;75.00;9.30;96408.00;;;;5041460;28;20223;-83
2022/11/14 08:13:25;;;;;;;4.00;2.60;;;9.20;75.10;9.30;96405.00;;;;5028243;28;20193;-83
2022/11/14 08:15:55;;;;;;;6.40;2.63;;;9.20;75.00;9.30;96399.00;;;;5026658;28;20239;-82
2022/11/14 08:18:22;;;;;;;2.97;2.53;;;9.20;74.80;9.30;96399.00;;;;5028253;28;20296;-84
2022/11/14 08:20:49;;;;;;;2.70;2.50;;;9.20;74.70;9.30;96397.00;;;;5033068;28;20193;-83
2022/11/14 08:23:16;;;;;;;3.27;2.37;;;9.20;75.00;9.30;96390.00;;;;5034064;28;20221;-83
2022/11/14 08:25:44;;;;;;;3.47;2.73;;;9.20;75.00;9.30;96393.00;;;;5033574;28;20585;-84
2022/11/14 08:28:11;;;;;;;3.13;2.80;;;9.30;75.10;9.40;96381.00;;;;5027849;28;20661;-84
2022/11/14 08:30:38;;;;;;;5.87;3.13;;;9.30;75.10;9.40;96377.00;;;;5033015;28;20198;-84
2022/11/14 08:33:07;;;;;;;3.67;2.67;;;9.30;75.10;9.40;96392.00;;;;5033214;28;20289;-84
2022/11/14 08:35:35;;;;;;;3.00;2.63;;;9.30;75.10;9.40;96395.00;;;;5034195;28;20245;-82
2022/11/14 08:38:02;;;;;;;3.73;2.97;;;9.30;75.10;9.40;96398.00;;;;5020940;28;20233;-84
2022/11/14 08:40:30;;;;;;;4.90;3.20;;;9.30;75.10;9.40;96394.00;;;;5032270;28;20208;-84
2022/11/14 08:43:01;;;;;;;2.80;2.60;;;9.30;75.10;9.50;96399.00;;;;5033093;28;20244;-82
2022/11/14 08:45:29;;;;;;;3.03;2.77;;;9.40;75.20;9.50;96408.00;;;;5033062;28;20335;-84
2022/11/14 08:47:56;;;;;;;2.80;2.57;;;9.40;75.30;9.50;96400.00;;;;5014538;28;20198;-83
2022/11/14 08:50:25;;;;;;;3.37;2.50;;;9.40;75.30;9.50;96403.00;;;;5024210;28;20202;-82
2022/11/14 08:52:52;;;;;;;2.83;2.63;;;9.40;75.30;9.50;96396.00;;;;5018517;28;20233;-83
2022/11/14 08:55:20;;;;;;;3.83;2.60;;;9.40;75.30;9.60;96395.00;;;;5037742;28;20650;-84
2022/11/14 08:57:48;;;;;;;3.23;2.77;;;9.40;75.40;9.60;96398.00;;;;5018306;28;20636;-84
2022/11/14 09:00:16;;;;;;;3.30;2.63;;;9.50;75.40;9.60;96404.00;;;;5027802;28;20213;-84
2022/11/14 09:02:44;;;;;;;3.23;2.80;;;9.50;75.30;9.60;96393.00;;;;5037094;28;20284;-83
2022/11/14 09:05:11;;;;;;;4.50;3.07;;;9.50;75.30;9.70;96385.00;;;;5040592;28;20251;-83
2022/11/14 09:07:40;;;;;;;3.73;3.37;;;9.50;75.30;9.70;96395.00;;;;5021930;28;20217;-83
2022/11/14 09:10:08;;;;;;;3.37;3.17;;;9.60;75.20;9.70;96394.00;;;;5034283;28;20252;-83
2022/11/14 09:12:35;;;;;;;3.10;2.80;;;9.60;75.20;9.70;96387.00;;;;5038990;28;20193;-83
2022/11/14 09:15:03;;;;;;;3.30;3.00;;;9.60;75.10;9.70;96403.00;;;;5032948;28;20312;-83
2022/11/14 09:17:30;;;;;;;3.17;2.90;;;9.60;75.00;9.70;96404.00;;;;5026575;28;20248;-82
2022/11/14 09:19:57;;;;;;;3.47;3.17;;;9.60;74.90;9.70;96414.00;;;;5037041;28;20209;-83
2022/11/14 09:22:24;;;;;;;3.00;2.80;;;9.70;75.00;9.80;96412.00;;;;5029226;28;20228;-83
2022/11/14 09:24:53;;;;;;;6.23;3.53;;;9.70;75.00;9.80;96410.00;;;;5035934;28;20706;-83
2022/11/14 09:27:20;;;;;;;2.90;2.70;;;9.70;75.00;9.80;96406.00;;;;5030380;28;20275;-83
2022/11/14 09:29:47;;;;;;;3.47;3.17;;;9.70;75.00;9.90;96411.00;;;;5037963;28;20581;-83
2022/11/14 09:32:15;;;;;;;3.57;3.27;;;9.80;75.20;9.90;96419.00;;;;5035972;28;20209;-83
2022/11/14 09:34:44;;;;;;;3.17;2.97;;;9.80;75.20;10.00;96420.00;;;;5040363;28;20259;-82
2022/11/14 09:37:12;;;;;;;3.67;3.37;;;9.80;75.40;10.00;96412.00;;;;5036936;28;20193;-82
2022/11/14 09:39:40;;;;;;;3.37;3.10;;;9.90;75.40;10.10;96403.00;;;;5038104;28;20212;-82
2022/11/14 09:42:29;;;;;;;3.23;2.93;;;9.90;75.10;10.10;96399.00;;;;5039822;28;20204;-83
2022/11/14 09:45:01;;;;;;;3.27;3.07;;;9.90;75.20;10.20;96398.00;;;;5023960;28;20300;-83
2022/11/14 09:47:33;;;;;;;3.47;3.23;;;10.00;75.30;10.30;96403.00;;;;5036383;28;20647;-83
2022/11/14 09:50:06;;;;;;;3.90;3.60;;;10.10;75.70;10.40;96403.00;;;;5040160;28;20309;-83
2022/11/14 09:52:38;;;;;;;3.80;3.60;;;10.20;76.30;10.70;96398.00;;;;5038601;28;20622;-82
2022/11/14 09:55:13;;;;;;;4.07;3.77;;;10.30;77.00;10.90;96407.00;;;;5035960;28;20655;-81
2022/11/14 09:57:44;;;;;;;3.90;3.60;;;10.50;77.60;11.10;96411.00;;;;5025161;28;20607;-83
2022/11/14 10:00:18;;;;;;;4.10;3.80;;;10.70;78.00;11.40;96416.00;;;;5016502;28;20305;-84
2022/11/14 10:03:07;;;;;;;3.80;3.50;;;11.00;78.10;11.60;96419.00;;;;5040037;28;20684;-83
2022/11/14 10:06:21;;;;;;;5.40;4.93;;;11.20;77.90;11.90;96418.00;;;;5029747;28;20221;-83
2022/11/14 10:09:11;;;;;;;4.23;3.93;;;11.50;77.70;12.10;96418.00;;;;5039708;28;20289;-84
2022/11/14 10:11:44;;;;;;;5.00;4.60;;;11.80;77.70;12.30;96424.00;;;;5033738;28;20198;-83
2022/11/14 10:14:52;;;;;;;4.33;3.93;;;12.00;77.50;12.50;96431.00;;;;5040168;28;20297;-83
2022/11/14 10:17:45;;;;;;;4.50;4.10;;;12.30;76.50;12.80;96433.00;;;;5033843;28;20280;-83
2022/11/14 10:20:22;;;;;;;4.50;4.10;;;12.50;76.60;13.00;96434.00;;;;5025978;28;20707;-84
2022/11/14 10:23:19;;;;;;;4.33;3.97;;;12.70;76.30;13.20;96437.00;;;;5037090;28;20610;-83
2022/11/14 10:26:05;;;;;;;4.70;4.30;;;13.00;75.30;13.30;96442.00;;;;5032734;28;20222;-83
2022/11/14 10:29:02;;;;;;;4.93;4.47;;;13.20;74.40;13.40;96436.00;;;;5036313;28;20277;-84
2022/11/14 10:31:45;;;;;;;3.93;3.63;;;13.30;73.20;13.50;96428.00;;;;5036661;28;20193;-84
2022/11/14 10:34:18;;;;;;;4.27;3.97;;;13.40;73.00;13.50;96426.00;;;;5035415;28;20263;-85
2022/11/14 10:37:01;;;;;;;4.10;3.80;;;13.50;72.90;13.50;96427.00;;;;5035543;28;20615;-84
2022/11/14 10:39:38;;;;;;;4.00;3.70;;;13.50;72.30;13.60;96424.00;;;;5047048;28;20193;-83
2022/11/14 10:42:15;;;;;;;3.97;3.67;;;13.60;72.30;13.60;96430.00;;;;5031118;28;20207;-84
2022/11/14 10:44:57;;;;;;;4.30;4.00;;;13.60;72.00;13.60;96430.00;;;;5035388;28;20216;-84
2022/11/14 10:47:33;;;;;;;4.30;4.00;;;13.50;71.90;13.60;96434.00;;;;5035355;28;20236;-84
2022/11/14 10:50:18;;;;;;;4.03;3.73;;;13.50;72.00;13.50;96435.00;;;;5034518;28;20300;-84
2022/11/14 10:52:52;;;;;;;4.03;3.73;;;13.50;72.00;13.50;96437.00;;;;5034116;28;20197;-83
2022/11/14 10:55:23;;;;;;;4.20;3.90;;;13.50;72.20;13.50;96449.00;;;;5014281;28;20210;-82
2022/11/14 10:57:51;;;;;;;3.87;3.57;;;13.50;72.30;13.50;96445.00;;;;5036448;28;20190;-84
2022/11/14 11:00:21;;;;;;;4.10;3.80;;;13.50;72.30;13.50;96460.00;;;;5035993;28;20239;-83
2022/11/14 11:02:54;;;;;;;4.60;4.20;;;13.40;71.70;13.40;96450.00;;;;5036510;28;20609;-83
2022/11/14 11:05:23;;;;;;;3.83;3.53;;;13.40;71.40;13.20;96453.00;;;;5029623;28;20249;-84
2022/11/14 11:13:35;;;;;;;3.93;3.63;;;13.20;71.50;13.00;96440.00;;;;5015556;28;20224;-83
2022/11/14 11:16:05;;;;;;;4.30;4.00;;;13.10;71.50;13.00;96446.00;;;;5021455;28;20257;-83
2022/11/14 11:18:35;;;;;;;4.40;4.00;;;13.00;71.60;12.90;96454.00;;;;5035277;28;20197;-84